createdAt,value
2018-08-28T00:01:00.957Z,99.9
2018-08-28T00:02:08.176Z,99.9
2018-08-28T00:03:15.122Z,99.9
2018-08-28T00:04:22.343Z,99.9
2018-08-28T00:05:29.566Z,99.9
2018-08-28T00:06:36.508Z,99.9
2018-08-28T00:07:43.450Z,99.9
2018-08-28T00:08:50.666Z,99.9
2018-08-28T00:09:57.878Z,99.9
2018-08-28T00:11:05.096Z,99.9
2018-08-28T00:12:11.770Z,99.9
2018-08-28T00:13:18.991Z,99.9
2018-08-28T00:14:26.208Z,99.9
2018-08-28T00:15:33.422Z,99.9
2018-08-28T00:16:40.361Z,99.9
2018-08-28T00:17:47.585Z,99.9
2018-08-28T00:18:54.809Z,99.9
2018-08-28T00:20:02.020Z,99.9
2018-08-28T00:21:09.239Z,99.9
2018-08-28T00:22:16.201Z,99.9
2018-08-28T00:23:23.425Z,99.9
2018-08-28T00:24:30.648Z,99.9
2018-08-28T00:25:37.857Z,99.9
2018-08-28T00:26:45.083Z,99.9
2018-08-28T00:27:52.304Z,99.9
2018-08-28T00:30:21.122Z,99.9
2018-08-28T00:31:28.350Z,99.9
2018-08-28T00:32:35.571Z,99.9
2018-08-28T00:33:42.793Z,99.9
2018-08-28T00:34:50.018Z,99.9
2018-08-28T00:35:57.241Z,99.9
2018-08-28T00:37:04.463Z,99.9
2018-08-28T00:38:11.671Z,99.9
2018-08-28T00:39:18.891Z,99.9
2018-08-28T00:40:26.104Z,99.9
2018-08-28T00:41:33.325Z,99.9
2018-08-28T00:42:40.268Z,99.9
2018-08-28T00:43:47.486Z,99.9
2018-08-28T00:44:54.704Z,99.9
2018-08-28T00:46:01.921Z,99.9
2018-08-28T00:47:09.147Z,99.9
2018-08-28T00:48:16.369Z,99.9
2018-08-28T00:49:23.590Z,99.9
2018-08-28T00:50:30.807Z,99.9
2018-08-28T00:51:38.030Z,99.9
2018-08-28T00:52:45.248Z,99.9
2018-08-28T00:53:52.199Z,99.9
2018-08-28T00:54:59.411Z,99.9
2018-08-28T00:56:06.629Z,99.9
2018-08-28T00:57:13.846Z,99.9
2018-08-28T00:58:20.781Z,99.9
2018-08-28T00:59:27.994Z,99.9
2018-08-28T01:00:35.210Z,99.9
2018-08-28T01:01:42.430Z,99.9
2018-08-28T01:02:49.684Z,99.9
2018-08-28T01:03:56.907Z,99.9
2018-08-28T01:05:04.123Z,99.9
2018-08-28T01:06:11.066Z,99.9
2018-08-28T01:07:18.298Z,99.9
2018-08-28T01:08:25.249Z,99.9
2018-08-28T01:09:32.463Z,99.9
2018-08-28T01:10:39.680Z,99.9
2018-08-28T01:11:46.902Z,99.9
2018-08-28T01:12:54.112Z,99.9
2018-08-28T01:14:01.353Z,99.9
2018-08-28T01:15:08.300Z,99.9
2018-08-28T01:16:15.546Z,99.9
2018-08-28T01:17:22.769Z,99.9
2018-08-28T01:18:29.997Z,99.9
2018-08-28T01:19:37.243Z,99.9
2018-08-28T01:20:44.468Z,99.9
2018-08-28T01:21:51.416Z,99.9
2018-08-28T01:22:58.635Z,99.9
2018-08-28T01:24:05.889Z,99.9
2018-08-28T01:25:12.841Z,99.9
2018-08-28T01:26:20.071Z,99.9
2018-08-28T01:27:27.305Z,99.9
2018-08-28T01:28:34.529Z,99.9
2018-08-28T01:29:41.756Z,99.9
2018-08-28T01:30:48.699Z,99.9
2018-08-28T01:31:55.671Z,99.9
2018-08-28T01:33:02.887Z,99.9
2018-08-28T01:34:10.065Z,99.9
2018-08-28T01:35:17.283Z,99.9
2018-08-28T01:36:24.498Z,99.9
2018-08-28T01:37:31.709Z,99.9
2018-08-28T01:38:38.654Z,99.9
2018-08-28T01:39:45.867Z,99.9
2018-08-28T01:40:53.084Z,99.9
2018-08-28T01:42:00.309Z,99.9
2018-08-28T01:43:07.533Z,99.9
2018-08-28T01:44:14.751Z,99.9
2018-08-28T01:45:21.979Z,99.9
2018-08-28T01:46:28.657Z,99.9
2018-08-28T01:47:35.872Z,99.9
2018-08-28T01:48:42.553Z,99.9
2018-08-28T01:49:49.765Z,99.9
2018-08-28T01:50:56.981Z,99.9
2018-08-28T01:52:04.197Z,99.9
2018-08-28T01:53:11.422Z,99.9
2018-08-28T01:54:18.649Z,99.9
2018-08-28T01:55:25.877Z,99.9
2018-08-28T01:56:33.121Z,99.9
2018-08-28T01:57:40.069Z,99.9
2018-08-28T01:58:47.286Z,99.9
2018-08-28T01:59:54.503Z,99.9
2018-08-28T02:01:01.451Z,99.9
2018-08-28T02:02:08.670Z,99.9
2018-08-28T02:03:15.891Z,99.9
2018-08-28T02:04:23.102Z,99.9
2018-08-28T02:05:30.317Z,99.9
2018-08-28T02:06:37.537Z,99.9
2018-08-28T02:07:44.752Z,99.9
2018-08-28T02:08:51.973Z,99.9
2018-08-28T02:09:59.201Z,99.9
2018-08-28T02:11:06.424Z,99.9
2018-08-28T02:12:13.664Z,99.9
2018-08-28T02:13:20.985Z,99.9
2018-08-28T02:14:28.702Z,99.9
2018-08-28T02:15:35.925Z,99.9
2018-08-28T02:16:42.866Z,99.9
2018-08-28T02:17:50.084Z,99.9
2018-08-28T02:18:57.025Z,99.9
2018-08-28T02:20:04.241Z,99.9
2018-08-28T02:21:11.451Z,99.9
2018-08-28T02:22:18.674Z,99.9
2018-08-28T02:23:25.901Z,99.9
2018-08-28T02:24:32.853Z,99.9
2018-08-28T02:25:40.064Z,99.9
2018-08-28T02:26:47.284Z,99.9
2018-08-28T02:27:54.499Z,99.9
2018-08-28T02:29:01.719Z,99.9
2018-08-28T02:30:08.932Z,99.9
2018-08-28T02:32:23.069Z,99.9
2018-08-28T02:33:30.304Z,99.9
2018-08-28T02:34:37.663Z,99.9
2018-08-28T02:35:44.877Z,99.9
2018-08-28T02:36:51.815Z,99.9
2018-08-28T02:37:59.031Z,99.9
2018-08-28T02:39:06.246Z,99.9
2018-08-28T02:40:13.189Z,99.9
2018-08-28T02:41:20.129Z,99.9
2018-08-28T02:42:27.356Z,99.9
2018-08-28T02:43:34.552Z,99.9
2018-08-28T02:44:41.774Z,99.9
2018-08-28T02:45:48.991Z,99.9
2018-08-28T02:46:55.936Z,99.9
2018-08-28T02:48:03.169Z,99.9
2018-08-28T02:49:10.393Z,99.9
2018-08-28T02:50:17.337Z,99.9
2018-08-28T02:51:24.556Z,99.9
2018-08-28T02:52:31.496Z,99.9
2018-08-28T02:53:38.716Z,99.9
2018-08-28T02:54:45.937Z,99.9
2018-08-28T02:55:53.153Z,99.9
2018-08-28T02:57:00.367Z,99.9
2018-08-28T02:58:07.583Z,99.9
2018-08-28T02:59:14.801Z,99.9
2018-08-28T03:00:22.018Z,99.9
2018-08-28T03:01:29.235Z,99.9
2018-08-28T03:02:36.447Z,99.9
2018-08-28T03:03:43.681Z,99.9
2018-08-28T03:04:50.916Z,99.9
2018-08-28T03:05:57.860Z,99.9
2018-08-28T03:07:05.070Z,99.9
2018-08-28T03:08:12.011Z,99.9
2018-08-28T03:09:19.226Z,99.9
2018-08-28T03:10:26.450Z,99.9
2018-08-28T03:11:33.708Z,99.9
2018-08-28T03:12:41.320Z,99.9
2018-08-28T03:13:48.536Z,99.9
2018-08-28T03:14:55.755Z,99.9
2018-08-28T03:16:03.100Z,99.9
2018-08-28T03:17:10.796Z,99.9
2018-08-28T03:18:18.021Z,99.9
2018-08-28T03:19:25.236Z,99.9
2018-08-28T03:20:32.459Z,99.9
2018-08-28T03:21:39.677Z,99.9
2018-08-28T03:22:46.900Z,99.9
2018-08-28T03:23:54.133Z,99.9
2018-08-28T03:25:01.349Z,99.9
2018-08-28T03:26:08.563Z,99.9
2018-08-28T03:27:15.781Z,99.9
2018-08-28T03:28:22.722Z,99.9
2018-08-28T03:29:29.949Z,99.9
2018-08-28T03:30:37.171Z,99.9
2018-08-28T03:31:44.117Z,99.9
2018-08-28T03:32:51.330Z,99.9
2018-08-28T03:33:58.551Z,99.9
2018-08-28T03:35:05.492Z,99.9
2018-08-28T03:36:12.710Z,99.9
2018-08-28T03:37:19.919Z,99.9
2018-08-28T03:38:27.134Z,99.9
2018-08-28T03:39:34.363Z,99.9
2018-08-28T03:40:41.578Z,99.9
2018-08-28T03:41:48.809Z,99.9
2018-08-28T03:42:56.027Z,99.9
2018-08-28T03:44:03.242Z,99.9
2018-08-28T03:45:10.455Z,99.9
2018-08-28T03:46:17.669Z,99.9
2018-08-28T03:47:24.886Z,99.9
2018-08-28T03:48:31.832Z,99.9
2018-08-28T03:49:39.049Z,99.9
2018-08-28T03:50:46.269Z,99.9
2018-08-28T03:51:53.223Z,99.9
2018-08-28T03:53:00.155Z,99.9
2018-08-28T03:54:07.098Z,99.9
2018-08-28T03:55:14.334Z,99.9
2018-08-28T03:56:21.603Z,99.9
2018-08-28T03:57:28.541Z,99.9
2018-08-28T03:58:35.769Z,99.9
2018-08-28T03:59:42.988Z,99.9
2018-08-28T04:00:49.934Z,99.9
2018-08-28T04:01:57.142Z,99.9
2018-08-28T04:03:04.361Z,99.9
2018-08-28T04:04:11.583Z,99.9
2018-08-28T04:05:18.809Z,99.9
2018-08-28T04:06:26.043Z,99.9
2018-08-28T04:07:34.070Z,99.9
2018-08-28T04:08:41.030Z,99.9
2018-08-28T04:09:48.250Z,99.9
2018-08-28T04:10:55.467Z,99.9
2018-08-28T04:12:02.424Z,99.9
2018-08-28T04:13:09.677Z,99.9
2018-08-28T04:14:16.894Z,99.9
2018-08-28T04:15:23.840Z,99.9
2018-08-28T04:16:31.066Z,99.9
2018-08-28T04:17:38.282Z,99.9
2018-08-28T04:18:45.500Z,99.9
2018-08-28T04:19:52.446Z,99.9
2018-08-28T04:20:59.663Z,99.9
2018-08-28T04:22:06.883Z,99.9
2018-08-28T04:23:14.097Z,99.9
2018-08-28T04:24:21.330Z,99.9
2018-08-28T04:25:28.553Z,99.9
2018-08-28T04:26:35.759Z,99.9
2018-08-28T04:27:42.981Z,99.9
2018-08-28T04:28:50.196Z,99.9
2018-08-28T04:29:57.416Z,99.9
2018-08-28T04:31:04.088Z,99.9
2018-08-28T04:32:11.296Z,99.9
2018-08-28T04:33:18.514Z,99.9
2018-08-28T04:34:25.727Z,99.9
2018-08-28T04:35:32.943Z,99.9
2018-08-28T04:36:40.160Z,99.9
2018-08-28T04:37:47.383Z,99.9
2018-08-28T04:38:54.600Z,99.9
2018-08-28T04:40:01.827Z,99.9
2018-08-28T04:41:09.050Z,99.9
2018-08-28T04:42:16.263Z,99.9
2018-08-28T04:43:23.480Z,99.9
2018-08-28T04:44:30.702Z,99.9
2018-08-28T04:45:37.920Z,99.9
2018-08-28T04:46:45.134Z,99.9
2018-08-28T04:47:52.348Z,99.9
2018-08-28T04:48:59.611Z,99.9
2018-08-28T04:50:07.409Z,99.9
2018-08-28T04:51:14.646Z,99.9
2018-08-28T04:52:21.866Z,99.9
2018-08-28T04:53:29.088Z,99.9
2018-08-28T04:54:36.310Z,99.9
2018-08-28T04:55:43.525Z,99.9
2018-08-28T04:56:50.744Z,99.9
2018-08-28T04:57:57.964Z,99.9
2018-08-28T04:59:05.183Z,99.9
2018-08-28T05:00:12.395Z,99.9
2018-08-28T05:01:19.621Z,99.9
2018-08-28T05:02:26.846Z,99.9
2018-08-28T05:03:34.064Z,99.9
2018-08-28T05:04:41.280Z,99.9
2018-08-28T05:05:48.499Z,99.9
2018-08-28T05:06:55.711Z,99.9
2018-08-28T05:08:02.922Z,99.9
2018-08-28T05:09:10.157Z,99.9
2018-08-28T05:10:17.378Z,99.9
2018-08-28T05:11:24.324Z,99.9
2018-08-28T05:12:31.547Z,99.9
2018-08-28T05:13:38.761Z,99.9
2018-08-28T05:14:45.711Z,99.9
2018-08-28T05:15:52.966Z,99.9
2018-08-28T05:17:00.416Z,99.9
2018-08-28T05:18:07.652Z,99.9
2018-08-28T05:19:14.929Z,99.9
2018-08-28T05:20:22.388Z,99.9
2018-08-28T05:21:29.609Z,99.9
2018-08-28T05:22:36.826Z,99.9
2018-08-28T05:23:43.799Z,99.9
2018-08-28T05:24:51.021Z,99.9
2018-08-28T05:25:57.958Z,99.9
2018-08-28T05:27:05.173Z,99.9
2018-08-28T05:28:12.392Z,99.9
2018-08-28T05:29:19.371Z,99.9
2018-08-28T05:30:26.749Z,99.9
2018-08-28T05:31:34.251Z,99.9
2018-08-28T05:32:41.465Z,99.9
2018-08-28T05:33:48.696Z,99.9
2018-08-28T05:34:55.637Z,99.9
2018-08-28T05:36:02.855Z,99.9
2018-08-28T05:37:09.810Z,99.9
2018-08-28T05:38:17.024Z,99.9
2018-08-28T05:39:24.239Z,99.9
2018-08-28T05:41:53.325Z,99.9
2018-08-28T05:43:00.542Z,99.9
2018-08-28T05:44:07.483Z,99.9
2018-08-28T05:45:14.695Z,99.9
2018-08-28T05:46:21.912Z,99.9
2018-08-28T05:47:29.127Z,99.9
2018-08-28T05:48:36.347Z,99.9
2018-08-28T05:49:43.803Z,99.9
2018-08-28T05:50:51.190Z,99.9
2018-08-28T05:51:58.404Z,99.9
2018-08-28T05:53:05.619Z,99.9
2018-08-28T05:54:12.837Z,99.9
2018-08-28T05:55:19.776Z,99.9
2018-08-28T05:56:26.993Z,99.9
2018-08-28T05:57:34.221Z,99.9
2018-08-28T05:58:41.438Z,99.9
2018-08-28T05:59:48.685Z,99.9
2018-08-28T06:00:55.898Z,99.9
2018-08-28T06:02:03.116Z,99.9
2018-08-28T06:03:10.487Z,99.9
2018-08-28T06:04:18.125Z,99.9
2018-08-28T06:05:25.361Z,99.9
2018-08-28T06:06:32.604Z,99.9
2018-08-28T06:07:39.850Z,99.9
2018-08-28T06:08:47.112Z,99.9
2018-08-28T06:09:54.418Z,99.9
2018-08-28T06:11:01.642Z,99.9
2018-08-28T06:13:30.445Z,99.9
2018-08-28T06:14:37.445Z,99.9
2018-08-28T06:15:44.775Z,99.9
2018-08-28T06:16:52.000Z,99.9
2018-08-28T06:17:59.224Z,99.9
2018-08-28T06:19:06.439Z,99.9
2018-08-28T06:20:13.657Z,99.9
2018-08-28T06:21:20.871Z,99.9
2018-08-28T06:22:27.813Z,99.9
2018-08-28T06:23:35.042Z,99.9
2018-08-28T06:24:41.977Z,99.9
2018-08-28T06:25:49.195Z,99.9
2018-08-28T06:26:56.413Z,99.9
2018-08-28T06:28:03.376Z,99.9
2018-08-28T06:29:10.592Z,99.9
2018-08-28T06:30:17.811Z,99.9
2018-08-28T06:31:25.025Z,99.9
2018-08-28T06:32:32.239Z,99.9
2018-08-28T06:33:39.452Z,99.9
2018-08-28T06:34:46.667Z,99.9
2018-08-28T06:35:53.890Z,99.9
2018-08-28T06:37:01.101Z,99.9
2018-08-28T06:38:08.042Z,99.9
2018-08-28T06:39:15.257Z,99.9
2018-08-28T06:40:22.475Z,99.9
2018-08-28T06:41:29.693Z,99.9
2018-08-28T06:42:36.910Z,99.9
2018-08-28T06:43:44.141Z,99.9
2018-08-28T06:44:51.531Z,99.9
2018-08-28T06:45:58.744Z,99.9
2018-08-28T06:47:05.959Z,99.9
2018-08-28T06:48:13.172Z,99.9
2018-08-28T06:49:20.410Z,99.9
2018-08-28T06:50:27.627Z,99.9
2018-08-28T06:51:34.845Z,99.9
2018-08-28T06:52:42.061Z,99.9
2018-08-28T06:53:49.276Z,99.9
2018-08-28T06:54:56.513Z,99.9
2018-08-28T06:56:03.738Z,99.9
2018-08-28T06:57:10.966Z,99.9
2018-08-28T06:58:18.216Z,99.9
2018-08-28T06:59:25.157Z,99.9
2018-08-28T07:00:32.103Z,99.9
2018-08-28T07:01:39.316Z,99.9
2018-08-28T07:02:46.534Z,99.9
2018-08-28T07:03:53.806Z,99.9
2018-08-28T07:05:01.172Z,99.9
2018-08-28T07:06:08.398Z,99.9
2018-08-28T07:07:15.616Z,99.9
2018-08-28T07:08:22.839Z,99.9
2018-08-28T07:09:30.058Z,99.9
2018-08-28T07:10:36.738Z,99.9
2018-08-28T07:11:43.963Z,99.9
2018-08-28T07:12:50.916Z,99.9
2018-08-28T07:13:58.137Z,99.9
2018-08-28T07:15:05.368Z,99.9
2018-08-28T07:16:12.588Z,99.9
2018-08-28T07:17:19.803Z,99.9
2018-08-28T07:18:27.029Z,99.9
2018-08-28T07:19:34.248Z,99.9
2018-08-28T07:20:41.476Z,99.9
2018-08-28T07:21:48.711Z,99.9
2018-08-28T07:22:55.942Z,99.9
2018-08-28T07:24:03.189Z,99.9
2018-08-28T07:25:10.414Z,99.9
2018-08-28T07:26:17.381Z,99.9
2018-08-28T07:27:24.609Z,99.9
2018-08-28T07:28:31.831Z,99.9
2018-08-28T07:29:39.059Z,96.9
2018-08-28T07:30:46.003Z,99.9
2018-08-28T07:31:53.374Z,99.9
2018-08-28T07:33:01.113Z,99.9
2018-08-28T07:34:08.342Z,99.9
2018-08-28T07:35:15.561Z,99.9
2018-08-28T07:36:22.777Z,99.4
2018-08-28T07:37:29.771Z,98.6
2018-08-28T07:38:37.330Z,95.1
2018-08-28T07:39:44.546Z,90.8
2018-08-28T07:40:51.765Z,86.4
2018-08-28T07:41:58.988Z,92.7
2018-08-28T07:43:06.203Z,87.2
2018-08-28T07:44:13.424Z,82.7
2018-08-28T07:45:20.379Z,89.6
2018-08-28T07:46:27.597Z,86.1
2018-08-28T07:47:34.818Z,77.1
2018-08-28T07:48:42.045Z,76.8
2018-08-28T07:49:49.261Z,72
2018-08-28T07:50:56.218Z,75.7
2018-08-28T07:52:03.157Z,80.6
2018-08-28T07:53:10.391Z,80.4
2018-08-28T07:54:17.603Z,73.8
2018-08-28T07:55:24.830Z,63.9
2018-08-28T07:56:32.070Z,65.8
2018-08-28T07:57:39.285Z,53.8
2018-08-28T07:58:46.514Z,45.8
2018-08-28T07:59:53.739Z,46.6
2018-08-28T08:01:00.962Z,46.7
2018-08-28T08:02:08.185Z,49.5
2018-08-28T08:03:15.405Z,49.6
2018-08-28T08:04:22.631Z,52.1
2018-08-28T08:05:29.595Z,54.7
2018-08-28T08:06:36.865Z,60.7
2018-08-28T08:07:43.538Z,66.1
2018-08-28T08:08:50.480Z,60.5
2018-08-28T08:09:57.697Z,62.1
2018-08-28T08:11:04.921Z,49.5
2018-08-28T08:12:11.867Z,58.1
2018-08-28T08:13:19.085Z,46
2018-08-28T08:14:26.306Z,60.6
2018-08-28T08:15:33.274Z,46.8
2018-08-28T08:16:40.631Z,33.2
2018-08-28T08:17:47.866Z,34.3
2018-08-28T08:18:55.107Z,43.1
2018-08-28T08:20:02.331Z,37.3
2018-08-28T08:21:09.576Z,35.7
2018-08-28T08:22:16.937Z,35.8
2018-08-28T08:23:24.361Z,35.8
2018-08-28T08:24:31.307Z,36.2
2018-08-28T08:25:38.293Z,38.7
2018-08-28T08:26:45.241Z,30.9
2018-08-28T08:27:52.503Z,28.4
2018-08-28T08:28:59.972Z,25.6
2018-08-28T08:30:06.936Z,29
2018-08-28T08:31:14.158Z,26.9
2018-08-28T08:32:21.398Z,32.7
2018-08-28T08:33:28.348Z,26.5
2018-08-28T08:34:35.587Z,21.6
2018-08-28T08:35:42.817Z,20.8
2018-08-28T08:36:49.768Z,22.9
2018-08-28T08:37:56.991Z,24.5
2018-08-28T08:39:03.936Z,27.2
2018-08-28T08:40:11.165Z,27.5
2018-08-28T08:41:18.382Z,22.5
2018-08-28T08:42:25.609Z,23.9
2018-08-28T08:43:32.851Z,23.2
2018-08-28T08:44:40.060Z,21.7
2018-08-28T08:45:47.020Z,21.5
2018-08-28T08:46:54.253Z,19.7
2018-08-28T08:48:01.483Z,26.9
2018-08-28T08:49:08.714Z,20.5
2018-08-28T08:50:15.930Z,21.3
2018-08-28T08:51:23.152Z,15.8
2018-08-28T08:52:30.380Z,18.5
2018-08-28T08:53:37.597Z,24.2
2018-08-28T08:54:44.617Z,21.1
2018-08-28T08:55:51.900Z,19.6
2018-08-28T08:56:59.140Z,18.5
2018-08-28T08:58:06.360Z,13.3
2018-08-28T08:59:13.814Z,19.2
2018-08-28T09:00:21.036Z,18.3
2018-08-28T09:01:28.493Z,17.8
2018-08-28T09:02:35.713Z,16.6
2018-08-28T09:03:42.903Z,13.9
2018-08-28T09:04:50.123Z,16.9
2018-08-28T09:05:57.370Z,13.2
2018-08-28T09:07:04.826Z,14.5
2018-08-28T09:08:12.054Z,14.5
2018-08-28T09:09:19.287Z,15
2018-08-28T09:10:26.510Z,19.3
2018-08-28T09:11:33.735Z,15.7
2018-08-28T09:12:40.963Z,13.5
2018-08-28T09:13:48.187Z,14.7
2018-08-28T09:14:55.407Z,13.2
2018-08-28T09:16:02.634Z,17.6
2018-08-28T09:17:09.857Z,14.4
2018-08-28T09:18:17.074Z,14.3
2018-08-28T09:19:24.360Z,13.5
2018-08-28T09:20:31.745Z,14
2018-08-28T09:21:38.976Z,11
2018-08-28T09:22:45.919Z,9.4
2018-08-28T09:23:52.864Z,13.8
2018-08-28T09:25:00.086Z,15.5
2018-08-28T09:26:07.301Z,15.9
2018-08-28T09:27:14.525Z,14.9
2018-08-28T09:28:21.747Z,12.2
2018-08-28T09:29:28.968Z,12.3
2018-08-28T09:30:36.186Z,11.1
2018-08-28T09:31:43.482Z,16.1
2018-08-28T09:32:51.036Z,19.9
2018-08-28T09:33:58.268Z,22.7
2018-08-28T09:35:05.218Z,19.9
2018-08-28T09:36:12.443Z,21.5
2018-08-28T09:37:19.675Z,18.4
2018-08-28T09:38:26.732Z,20.2
2018-08-28T09:39:34.395Z,16
2018-08-28T09:40:41.618Z,16.9
2018-08-28T09:41:48.849Z,19.2
2018-08-28T09:42:56.074Z,20.7
2018-08-28T09:44:03.299Z,18.3
2018-08-28T09:45:10.515Z,12.3
2018-08-28T09:46:17.744Z,17
2018-08-28T09:47:25.008Z,12.5
2018-08-28T09:48:32.400Z,14.9
2018-08-28T09:49:39.998Z,13.5
2018-08-28T09:50:47.314Z,7.9
2018-08-28T09:51:55.070Z,10.9
2018-08-28T09:53:02.295Z,12.6
2018-08-28T09:54:09.521Z,10.6
2018-08-28T09:55:16.747Z,15.7
2018-08-28T09:56:23.984Z,14.5
2018-08-28T09:57:31.305Z,11.1
2018-08-28T09:58:38.549Z,14.2
2018-08-28T09:59:45.683Z,14.6
2018-08-28T10:00:52.907Z,8.1
2018-08-28T10:02:00.127Z,10.5
2018-08-28T10:03:07.354Z,11.7
2018-08-28T10:04:14.608Z,13.3
2018-08-28T10:05:21.835Z,13.9
2018-08-28T10:06:29.289Z,11.5
2018-08-28T10:07:36.532Z,9.5
2018-08-28T10:08:43.777Z,10.4
2018-08-28T10:09:50.998Z,10.3
2018-08-28T10:10:58.228Z,9.1
2018-08-28T10:12:05.826Z,8.9
2018-08-28T10:13:13.058Z,8.8
2018-08-28T10:14:20.268Z,12
2018-08-28T10:15:27.500Z,7.1
2018-08-28T10:16:34.726Z,8.8
2018-08-28T10:17:41.994Z,5
2018-08-28T10:18:49.218Z,5.6
2018-08-28T10:19:56.441Z,5.6
2018-08-28T10:21:03.668Z,6.6
2018-08-28T10:22:10.896Z,7.2
2018-08-28T10:23:18.115Z,10.5
2018-08-28T10:24:25.341Z,10
2018-08-28T10:25:32.564Z,7.3
2018-08-28T10:26:40.036Z,4.6
2018-08-28T10:27:47.250Z,5.9
2018-08-28T10:28:54.489Z,7
2018-08-28T10:30:01.717Z,8.5
2018-08-28T10:31:08.951Z,7.2
2018-08-28T10:32:16.170Z,9
2018-08-28T10:33:23.390Z,8.1
2018-08-28T10:34:30.336Z,6.9
2018-08-28T10:35:37.562Z,9.5
2018-08-28T10:36:44.788Z,10.5
2018-08-28T10:37:52.032Z,4.2
2018-08-28T10:38:59.266Z,6.4
2018-08-28T10:40:06.489Z,1.5
2018-08-28T10:41:13.440Z,8.2
2018-08-28T10:42:20.668Z,1
2018-08-28T10:43:27.890Z,5.5
2018-08-28T10:44:35.121Z,1
2018-08-28T10:45:42.350Z,1
2018-08-28T10:46:49.722Z,3.4
2018-08-28T10:47:58.091Z,2.2
2018-08-28T10:49:05.307Z,2.9
2018-08-28T10:50:12.529Z,7.2
2018-08-28T10:51:19.762Z,4.8
2018-08-28T10:52:26.976Z,4.3
2018-08-28T10:53:34.208Z,3
2018-08-28T10:54:41.434Z,3.7
2018-08-28T10:55:48.683Z,1.8
2018-08-28T10:56:55.912Z,4
2018-08-28T10:58:03.153Z,1
2018-08-28T10:59:10.378Z,2
2018-08-28T11:00:17.616Z,2.2
2018-08-28T11:01:24.868Z,1.8
2018-08-28T11:02:32.113Z,1
2018-08-28T11:03:39.355Z,1
2018-08-28T11:04:46.578Z,1
2018-08-28T11:05:53.803Z,1.8
2018-08-28T11:07:01.247Z,5.6
2018-08-28T11:08:08.472Z,2
2018-08-28T11:09:15.926Z,1.1
2018-08-28T11:10:23.153Z,1
2018-08-28T11:11:30.102Z,7.7
2018-08-28T11:12:37.054Z,2.4
2018-08-28T11:13:44.284Z,4.8
2018-08-28T11:14:51.524Z,1.5
2018-08-28T11:15:58.244Z,1
2018-08-28T11:17:05.537Z,1
2018-08-28T11:18:12.762Z,1
2018-08-28T11:19:19.992Z,1
2018-08-28T11:20:27.217Z,1
2018-08-28T11:21:34.443Z,2.1
2018-08-28T11:22:41.688Z,1
2018-08-28T11:23:48.968Z,1
2018-08-28T11:24:56.195Z,2.6
2018-08-28T11:26:03.416Z,1
2018-08-28T11:27:10.637Z,3.2
2018-08-28T11:28:17.861Z,1
2018-08-28T11:29:24.816Z,1
2018-08-28T11:30:32.142Z,1
2018-08-28T11:31:39.091Z,1
2018-08-28T11:32:46.332Z,1
2018-08-28T11:33:53.583Z,1
2018-08-28T11:35:00.806Z,1
2018-08-28T11:36:08.032Z,1
2018-08-28T11:37:15.257Z,1
2018-08-28T11:38:22.545Z,1
2018-08-28T11:39:30.101Z,1
2018-08-28T11:40:37.323Z,1
2018-08-28T11:41:44.550Z,1
2018-08-28T11:42:51.772Z,1
2018-08-28T11:43:58.992Z,1
2018-08-28T11:45:05.940Z,1
2018-08-28T11:46:13.170Z,1
2018-08-28T11:47:20.390Z,1
2018-08-28T11:48:27.335Z,1
2018-08-28T11:49:34.560Z,1
2018-08-28T11:50:41.782Z,1
2018-08-28T11:51:49.007Z,1
2018-08-28T11:52:56.239Z,1
2018-08-28T11:54:03.457Z,1
2018-08-28T11:55:10.414Z,1
2018-08-28T11:56:17.648Z,1
2018-08-28T11:57:24.606Z,1
2018-08-28T11:58:31.560Z,1
2018-08-28T11:59:38.784Z,1
2018-08-28T12:00:45.753Z,1
2018-08-28T12:01:53.073Z,1
2018-08-28T12:03:00.420Z,1
2018-08-28T12:04:07.653Z,1
2018-08-28T12:05:14.944Z,1
2018-08-28T12:06:22.031Z,1
2018-08-28T12:07:29.351Z,1
2018-08-28T12:08:37.219Z,1
2018-08-28T12:09:44.174Z,1
2018-08-28T12:10:51.399Z,1
2018-08-28T12:11:58.617Z,1
2018-08-28T12:13:05.862Z,1
2018-08-28T12:14:13.409Z,1
2018-08-28T12:15:20.632Z,1
2018-08-28T12:16:27.856Z,1
2018-08-28T12:17:35.093Z,1
2018-08-28T12:18:42.323Z,1
2018-08-28T12:19:49.548Z,1
2018-08-28T12:20:56.855Z,1
2018-08-28T12:22:04.324Z,1
2018-08-28T12:23:11.661Z,1
2018-08-28T12:24:18.899Z,1
2018-08-28T12:25:26.357Z,1
2018-08-28T22:00:05.681Z,99.9
2018-08-28T22:01:12.919Z,99.9
2018-08-28T22:02:20.146Z,99.9
2018-08-28T22:03:27.123Z,99.9
2018-08-28T22:04:34.351Z,99.9
2018-08-28T22:05:41.561Z,99.9
2018-08-28T22:06:48.852Z,99.9
2018-08-28T22:07:56.231Z,99.9
2018-08-28T22:09:03.447Z,99.9
2018-08-28T22:10:10.415Z,99.9
2018-08-28T22:11:17.356Z,99.9
2018-08-28T22:12:24.584Z,99.9
2018-08-28T22:13:31.909Z,99.9
2018-08-28T22:14:39.689Z,99.9
2018-08-28T22:15:46.916Z,99.9
2018-08-28T22:16:54.133Z,99.9
2018-08-28T22:18:01.363Z,99.9
2018-08-28T22:19:08.321Z,99.9
2018-08-28T22:20:15.529Z,99.9
2018-08-28T22:21:22.755Z,99.9
2018-08-28T22:22:29.974Z,99.9
2018-08-28T22:23:37.188Z,99.9
2018-08-28T22:24:44.401Z,99.9
2018-08-28T22:25:51.617Z,99.9
2018-08-28T22:26:58.854Z,99.9
2018-08-28T22:28:06.072Z,99.9
2018-08-28T22:29:13.288Z,99.9
2018-08-28T22:30:20.499Z,99.9
2018-08-28T22:31:27.709Z,99.9
2018-08-28T22:32:34.932Z,99.9
2018-08-28T22:33:42.152Z,99.9
2018-08-28T22:35:56.001Z,99.9
2018-08-28T22:37:03.232Z,99.9
2018-08-28T22:38:10.181Z,99.9
2018-08-28T22:39:17.404Z,99.9
2018-08-28T22:40:24.612Z,99.9
2018-08-28T22:41:31.824Z,99.9
2018-08-28T22:42:39.040Z,99.9
2018-08-28T22:43:46.263Z,99.9
2018-08-28T22:44:53.476Z,99.9
2018-08-28T22:46:00.707Z,99.9
2018-08-28T22:47:07.933Z,99.9
2018-08-28T22:48:15.168Z,99.9
2018-08-28T22:49:22.388Z,99.9
2018-08-28T22:50:29.608Z,99.9
2018-08-28T22:51:36.829Z,99.9
2018-08-28T22:52:43.784Z,99.9
2018-08-28T22:53:51.008Z,99.9
2018-08-28T22:54:58.227Z,99.9
2018-08-28T22:56:05.448Z,99.9
2018-08-28T22:57:12.673Z,99.9
2018-08-28T22:58:19.890Z,99.9
2018-08-28T22:59:26.828Z,99.9
2018-08-28T23:00:34.042Z,99.9
2018-08-28T23:01:41.271Z,99.9
2018-08-28T23:02:48.493Z,99.9
2018-08-28T23:03:55.713Z,99.9
2018-08-28T23:05:02.928Z,99.9
2018-08-28T23:06:09.868Z,99.9
2018-08-28T23:07:17.092Z,99.9
2018-08-28T23:08:24.303Z,99.9
2018-08-28T23:09:31.531Z,99.9
2018-08-28T23:10:38.512Z,99.9
2018-08-28T23:11:45.454Z,99.9
2018-08-28T23:12:52.685Z,99.9
2018-08-28T23:13:59.924Z,99.9
2018-08-28T23:15:07.292Z,99.9
2018-08-28T23:16:14.236Z,99.9
2018-08-28T23:17:21.468Z,99.9
2018-08-28T23:18:28.694Z,99.9
2018-08-28T23:19:35.912Z,99.9
2018-08-28T23:20:43.123Z,99.9
2018-08-28T23:21:50.347Z,99.9
2018-08-28T23:22:57.567Z,99.9
2018-08-28T23:24:04.804Z,99.9
2018-08-28T23:25:12.022Z,99.9
2018-08-28T23:26:19.241Z,99.9
2018-08-28T23:27:26.455Z,99.9
2018-08-28T23:28:33.683Z,99.9
2018-08-28T23:29:40.904Z,99.9
2018-08-28T23:30:48.122Z,99.9
2018-08-28T23:31:55.337Z,99.9
2018-08-28T23:33:02.279Z,99.9
2018-08-28T23:34:09.229Z,99.9
2018-08-28T23:35:16.455Z,99.9
2018-08-28T23:36:23.679Z,99.9
2018-08-28T23:37:30.895Z,99.9
2018-08-28T23:38:37.846Z,99.9
2018-08-28T23:39:45.062Z,99.9
2018-08-28T23:40:52.281Z,99.9
2018-08-28T23:41:59.516Z,99.9
2018-08-28T23:43:06.730Z,99.9
2018-08-28T23:44:13.705Z,99.9
2018-08-28T23:45:20.919Z,99.9
2018-08-28T23:46:28.149Z,99.9
2018-08-28T23:47:35.371Z,99.9
2018-08-28T23:48:42.592Z,99.9
2018-08-28T23:49:49.826Z,99.9
2018-08-28T23:50:57.042Z,99.9
2018-08-28T23:52:04.259Z,99.9
2018-08-28T23:53:11.196Z,99.9
2018-08-28T23:54:18.417Z,99.9
2018-08-28T23:55:25.654Z,99.9
2018-08-28T23:56:32.877Z,99.9
2018-08-28T23:57:40.095Z,99.9
2018-08-28T23:58:47.314Z,99.9
2018-08-28T23:59:54.257Z,99.9
